sensor_id;sensor_type;location;lat;lon;timestamp;P1;durP1;ratioP1;P2;durP2;ratioP2
45274;SDS011;31019;43.780;25.948;2023-03-01T00:02:20;80.00;;;66.55;;
45274;SDS011;31019;43.780;25.948;2023-03-01T00:04:47;77.47;;;54.13;;
45274;SDS011;31019;43.780;25.948;2023-03-01T00:07:15;67.15;;;49.28;;
45274;SDS011;31019;43.780;25.948;2023-03-01T00:09:42;71.80;;;47.10;;
45274;SDS011;31019;43.780;25.948;2023-03-01T00:12:11;72.57;;;50.00;;
45274;SDS011;31019;43.780;25.948;2023-03-01T00:14:37;59.72;;;45.13;;
45274;SDS011;31019;43.780;25.948;2023-03-01T00:17:05;55.03;;;41.72;;
45274;SDS011;31019;43.780;25.948;2023-03-01T00:19:31;60.58;;;44.65;;
45274;SDS011;31019;43.780;25.948;2023-03-01T00:21:58;58.38;;;41.22;;
45274;SDS011;31019;43.780;25.948;2023-03-01T00:24:26;67.32;;;45.47;;
45274;SDS011;31019;43.780;25.948;2023-03-01T00:26:53;63.35;;;44.13;;
45274;SDS011;31019;43.780;25.948;2023-03-01T00:29:21;67.70;;;44.75;;
45274;SDS011;31019;43.780;25.948;2023-03-01T00:31:48;59.40;;;42.78;;
45274;SDS011;31019;43.780;25.948;2023-03-01T00:34:15;59.00;;;42.35;;
45274;SDS011;31019;43.780;25.948;2023-03-01T00:36:42;55.10;;;39.55;;
45274;SDS011;31019;43.780;25.948;2023-03-01T00:39:10;53.45;;;41.90;;
45274;SDS011;31019;43.780;25.948;2023-03-01T00:41:39;53.13;;;42.42;;
45274;SDS011;31019;43.780;25.948;2023-03-01T00:44:06;57.22;;;49.25;;
45274;SDS011;31019;43.780;25.948;2023-03-01T00:46:33;51.30;;;44.47;;
45274;SDS011;31019;43.780;25.948;2023-03-01T00:49:00;53.75;;;45.38;;
45274;SDS011;31019;43.780;25.948;2023-03-01T00:51:27;49.25;;;43.03;;
45274;SDS011;31019;43.780;25.948;2023-03-01T00:53:55;53.03;;;43.72;;
45274;SDS011;31019;43.780;25.948;2023-03-01T00:56:23;48.72;;;37.85;;
45274;SDS011;31019;43.780;25.948;2023-03-01T00:58:51;50.63;;;37.40;;
45274;SDS011;31019;43.780;25.948;2023-03-01T01:01:18;49.88;;;40.03;;
45274;SDS011;31019;43.780;25.948;2023-03-01T01:03:47;51.90;;;40.97;;
45274;SDS011;31019;43.780;25.948;2023-03-01T01:06:18;57.42;;;46.13;;
45274;SDS011;31019;43.780;25.948;2023-03-01T01:08:47;51.83;;;41.15;;
45274;SDS011;31019;43.780;25.948;2023-03-01T01:11:15;61.25;;;45.67;;
45274;SDS011;31019;43.780;25.948;2023-03-01T01:13:43;56.35;;;46.22;;
45274;SDS011;31019;43.780;25.948;2023-03-01T01:16:12;57.47;;;45.10;;
45274;SDS011;31019;43.780;25.948;2023-03-01T01:18:39;64.25;;;49.45;;
45274;SDS011;31019;43.780;25.948;2023-03-01T01:21:07;65.38;;;48.75;;
45274;SDS011;31019;43.780;25.948;2023-03-01T01:23:35;59.38;;;45.88;;
45274;SDS011;31019;43.780;25.948;2023-03-01T01:26:03;57.35;;;44.03;;
45274;SDS011;31019;43.780;25.948;2023-03-01T01:28:31;61.13;;;44.75;;
45274;SDS011;31019;43.780;25.948;2023-03-01T01:30:58;59.83;;;47.38;;
45274;SDS011;31019;43.780;25.948;2023-03-01T01:33:26;62.35;;;50.33;;
45274;SDS011;31019;43.780;25.948;2023-03-01T01:35:53;61.15;;;52.92;;
45274;SDS011;31019;43.780;25.948;2023-03-01T01:38:20;62.17;;;52.40;;
45274;SDS011;31019;43.780;25.948;2023-03-01T01:40:48;61.10;;;48.33;;
45274;SDS011;31019;43.780;25.948;2023-03-01T01:43:19;57.10;;;46.30;;
45274;SDS011;31019;43.780;25.948;2023-03-01T01:45:51;58.47;;;48.67;;
45274;SDS011;31019;43.780;25.948;2023-03-01T01:48:22;55.17;;;43.35;;
45274;SDS011;31019;43.780;25.948;2023-03-01T01:51:03;59.72;;;45.83;;
45274;SDS011;31019;43.780;25.948;2023-03-01T01:53:30;61.50;;;46.95;;
45274;SDS011;31019;43.780;25.948;2023-03-01T01:55:58;58.15;;;46.70;;
45274;SDS011;31019;43.780;25.948;2023-03-01T01:58:27;62.35;;;46.03;;
45274;SDS011;31019;43.780;25.948;2023-03-01T02:00:56;61.40;;;48.45;;
45274;SDS011;31019;43.780;25.948;2023-03-01T02:03:24;60.25;;;46.33;;
45274;SDS011;31019;43.780;25.948;2023-03-01T02:05:56;65.68;;;51.50;;
45274;SDS011;31019;43.780;25.948;2023-03-01T02:08:31;58.75;;;43.28;;
45274;SDS011;31019;43.780;25.948;2023-03-01T02:11:01;57.65;;;43.92;;
45274;SDS011;31019;43.780;25.948;2023-03-01T02:13:29;73.10;;;53.95;;
45274;SDS011;31019;43.780;25.948;2023-03-01T02:15:56;67.80;;;53.83;;
45274;SDS011;31019;43.780;25.948;2023-03-01T02:18:23;62.42;;;46.13;;
45274;SDS011;31019;43.780;25.948;2023-03-01T02:20:55;63.03;;;43.35;;
45274;SDS011;31019;43.780;25.948;2023-03-01T02:23:31;64.63;;;50.15;;
45274;SDS011;31019;43.780;25.948;2023-03-01T02:26:01;64.38;;;48.78;;
45274;SDS011;31019;43.780;25.948;2023-03-01T02:28:34;59.47;;;43.92;;
45274;SDS011;31019;43.780;25.948;2023-03-01T02:31:03;56.55;;;44.50;;
45274;SDS011;31019;43.780;25.948;2023-03-01T02:33:49;65.03;;;50.85;;
45274;SDS011;31019;43.780;25.948;2023-03-01T02:36:17;70.90;;;59.83;;
45274;SDS011;31019;43.780;25.948;2023-03-01T02:38:46;73.30;;;59.28;;
45274;SDS011;31019;43.780;25.948;2023-03-01T02:41:15;68.20;;;53.35;;
45274;SDS011;31019;43.780;25.948;2023-03-01T02:43:45;70.78;;;56.33;;
45274;SDS011;31019;43.780;25.948;2023-03-01T02:46:14;70.85;;;63.05;;
45274;SDS011;31019;43.780;25.948;2023-03-01T02:48:43;76.03;;;61.65;;
45274;SDS011;31019;43.780;25.948;2023-03-01T02:51:21;72.05;;;58.22;;
45274;SDS011;31019;43.780;25.948;2023-03-01T02:53:56;81.80;;;73.22;;
45274;SDS011;31019;43.780;25.948;2023-03-01T02:56:32;68.28;;;55.53;;
45274;SDS011;31019;43.780;25.948;2023-03-01T02:59:00;74.32;;;55.97;;
45274;SDS011;31019;43.780;25.948;2023-03-01T03:01:27;72.28;;;57.83;;
45274;SDS011;31019;43.780;25.948;2023-03-01T03:04:01;74.72;;;63.67;;
45274;SDS011;31019;43.780;25.948;2023-03-01T03:06:29;69.22;;;59.95;;
45274;SDS011;31019;43.780;25.948;2023-03-01T03:08:56;67.28;;;52.63;;
45274;SDS011;31019;43.780;25.948;2023-03-01T03:11:22;75.63;;;59.10;;
45274;SDS011;31019;43.780;25.948;2023-03-01T03:13:49;74.70;;;62.70;;
45274;SDS011;31019;43.780;25.948;2023-03-01T03:16:18;66.82;;;58.35;;
45274;SDS011;31019;43.780;25.948;2023-03-01T03:18:45;73.20;;;63.80;;
45274;SDS011;31019;43.780;25.948;2023-03-01T03:21:12;66.43;;;55.08;;
45274;SDS011;31019;43.780;25.948;2023-03-01T03:23:39;68.75;;;55.55;;
45274;SDS011;31019;43.780;25.948;2023-03-01T03:26:06;62.90;;;48.60;;
45274;SDS011;31019;43.780;25.948;2023-03-01T03:28:33;62.00;;;44.83;;
45274;SDS011;31019;43.780;25.948;2023-03-01T03:31:00;65.00;;;45.70;;
45274;SDS011;31019;43.780;25.948;2023-03-01T03:33:29;59.03;;;42.10;;
45274;SDS011;31019;43.780;25.948;2023-03-01T03:35:56;58.58;;;41.92;;
45274;SDS011;31019;43.780;25.948;2023-03-01T03:38:23;61.55;;;44.97;;
45274;SDS011;31019;43.780;25.948;2023-03-01T03:40:51;62.83;;;47.33;;
45274;SDS011;31019;43.780;25.948;2023-03-01T03:43:26;63.28;;;44.95;;
45274;SDS011;31019;43.780;25.948;2023-03-01T03:45:52;60.38;;;42.95;;
45274;SDS011;31019;43.780;25.948;2023-03-01T03:48:22;57.78;;;43.00;;
45274;SDS011;31019;43.780;25.948;2023-03-01T03:50:51;58.55;;;44.53;;
45274;SDS011;31019;43.780;25.948;2023-03-01T03:53:19;61.85;;;43.65;;
45274;SDS011;31019;43.780;25.948;2023-03-01T03:55:46;58.80;;;45.40;;
45274;SDS011;31019;43.780;25.948;2023-03-01T03:58:15;61.45;;;41.67;;
45274;SDS011;31019;43.780;25.948;2023-03-01T04:00:44;56.88;;;40.63;;
45274;SDS011;31019;43.780;25.948;2023-03-01T04:03:13;55.22;;;40.05;;
45274;SDS011;31019;43.780;25.948;2023-03-01T04:05:41;57.83;;;40.25;;
45274;SDS011;31019;43.780;25.948;2023-03-01T04:08:10;60.70;;;42.88;;
45274;SDS011;31019;43.780;25.948;2023-03-01T04:10:37;61.53;;;42.83;;
45274;SDS011;31019;43.780;25.948;2023-03-01T04:13:05;64.05;;;43.42;;
45274;SDS011;31019;43.780;25.948;2023-03-01T04:15:34;65.40;;;43.63;;
45274;SDS011;31019;43.780;25.948;2023-03-01T04:18:00;57.65;;;43.13;;
45274;SDS011;31019;43.780;25.948;2023-03-01T04:20:28;59.20;;;45.45;;
45274;SDS011;31019;43.780;25.948;2023-03-01T04:22:59;65.95;;;48.22;;
45274;SDS011;31019;43.780;25.948;2023-03-01T04:25:36;56.92;;;42.25;;
45274;SDS011;31019;43.780;25.948;2023-03-01T04:28:04;59.35;;;43.90;;
45274;SDS011;31019;43.780;25.948;2023-03-01T04:30:30;65.53;;;51.90;;
45274;SDS011;31019;43.780;25.948;2023-03-01T04:33:01;64.70;;;45.50;;
45274;SDS011;31019;43.780;25.948;2023-03-01T04:35:28;66.68;;;46.85;;
45274;SDS011;31019;43.780;25.948;2023-03-01T04:37:55;69.35;;;47.28;;
45274;SDS011;31019;43.780;25.948;2023-03-01T04:40:22;67.78;;;45.05;;
45274;SDS011;31019;43.780;25.948;2023-03-01T04:42:50;73.00;;;49.83;;
45274;SDS011;31019;43.780;25.948;2023-03-01T04:45:17;67.35;;;46.55;;
45274;SDS011;31019;43.780;25.948;2023-03-01T04:47:44;67.68;;;45.55;;
45274;SDS011;31019;43.780;25.948;2023-03-01T04:50:13;60.45;;;44.05;;
45274;SDS011;31019;43.780;25.948;2023-03-01T04:52:42;71.75;;;48.45;;
45274;SDS011;31019;43.780;25.948;2023-03-01T04:55:09;67.85;;;49.63;;
45274;SDS011;31019;43.780;25.948;2023-03-01T04:57:36;72.43;;;57.60;;
45274;SDS011;31019;43.780;25.948;2023-03-01T05:00:06;62.67;;;53.17;;
45274;SDS011;31019;43.780;25.948;2023-03-01T05:02:45;68.13;;;53.00;;
45274;SDS011;31019;43.780;25.948;2023-03-01T05:05:18;71.75;;;49.60;;
45274;SDS011;31019;43.780;25.948;2023-03-01T05:07:46;71.32;;;51.88;;
45274;SDS011;31019;43.780;25.948;2023-03-01T05:10:13;68.43;;;50.08;;
45274;SDS011;31019;43.780;25.948;2023-03-01T05:12:40;71.95;;;51.20;;
45274;SDS011;31019;43.780;25.948;2023-03-01T05:15:09;74.53;;;54.10;;
45274;SDS011;31019;43.780;25.948;2023-03-01T05:17:36;73.63;;;53.80;;
45274;SDS011;31019;43.780;25.948;2023-03-01T05:20:03;78.85;;;55.17;;
45274;SDS011;31019;43.780;25.948;2023-03-01T05:22:33;76.60;;;56.15;;
45274;SDS011;31019;43.780;25.948;2023-03-01T05:25:00;72.57;;;56.75;;
45274;SDS011;31019;43.780;25.948;2023-03-01T05:27:27;69.68;;;51.28;;
45274;SDS011;31019;43.780;25.948;2023-03-01T05:29:54;74.50;;;53.65;;
45274;SDS011;31019;43.780;25.948;2023-03-01T05:32:22;66.85;;;47.00;;
45274;SDS011;31019;43.780;25.948;2023-03-01T05:34:49;60.08;;;44.70;;
45274;SDS011;31019;43.780;25.948;2023-03-01T05:37:17;67.38;;;52.30;;
45274;SDS011;31019;43.780;25.948;2023-03-01T05:39:44;63.08;;;47.63;;
45274;SDS011;31019;43.780;25.948;2023-03-01T05:42:11;73.43;;;54.95;;
45274;SDS011;31019;43.780;25.948;2023-03-01T05:44:38;61.60;;;48.03;;
45274;SDS011;31019;43.780;25.948;2023-03-01T05:47:05;57.95;;;43.58;;
45274;SDS011;31019;43.780;25.948;2023-03-01T05:49:33;63.58;;;48.30;;
45274;SDS011;31019;43.780;25.948;2023-03-01T05:52:00;61.80;;;45.20;;
45274;SDS011;31019;43.780;25.948;2023-03-01T05:54:27;60.17;;;44.05;;
45274;SDS011;31019;43.780;25.948;2023-03-01T05:56:53;63.53;;;44.17;;
45274;SDS011;31019;43.780;25.948;2023-03-01T05:59:21;56.35;;;43.08;;
45274;SDS011;31019;43.780;25.948;2023-03-01T06:01:48;75.10;;;53.10;;
45274;SDS011;31019;43.780;25.948;2023-03-01T06:04:15;57.85;;;45.00;;
45274;SDS011;31019;43.780;25.948;2023-03-01T06:06:43;55.50;;;43.35;;
45274;SDS011;31019;43.780;25.948;2023-03-01T06:09:09;58.42;;;41.53;;
45274;SDS011;31019;43.780;25.948;2023-03-01T06:11:36;57.85;;;42.97;;
45274;SDS011;31019;43.780;25.948;2023-03-01T06:14:03;56.70;;;42.92;;
45274;SDS011;31019;43.780;25.948;2023-03-01T06:16:31;56.08;;;42.67;;
45274;SDS011;31019;43.780;25.948;2023-03-01T06:18:58;57.00;;;43.97;;
45274;SDS011;31019;43.780;25.948;2023-03-01T06:21:24;54.75;;;40.90;;
45274;SDS011;31019;43.780;25.948;2023-03-01T06:23:53;57.17;;;42.88;;
45274;SDS011;31019;43.780;25.948;2023-03-01T06:26:19;62.38;;;44.90;;
45274;SDS011;31019;43.780;25.948;2023-03-01T06:28:46;63.65;;;46.35;;
45274;SDS011;31019;43.780;25.948;2023-03-01T06:31:13;58.55;;;42.38;;
45274;SDS011;31019;43.780;25.948;2023-03-01T06:33:40;58.28;;;43.42;;
45274;SDS011;31019;43.780;25.948;2023-03-01T06:36:07;55.13;;;41.08;;
45274;SDS011;31019;43.780;25.948;2023-03-01T06:38:35;55.13;;;43.42;;
45274;SDS011;31019;43.780;25.948;2023-03-01T06:41:03;59.95;;;48.45;;
45274;SDS011;31019;43.780;25.948;2023-03-01T06:43:30;61.17;;;45.10;;
45274;SDS011;31019;43.780;25.948;2023-03-01T06:45:57;60.38;;;45.15;;
45274;SDS011;31019;43.780;25.948;2023-03-01T06:48:23;61.50;;;44.97;;
45274;SDS011;31019;43.780;25.948;2023-03-01T06:50:50;61.78;;;44.42;;
45274;SDS011;31019;43.780;25.948;2023-03-01T06:53:17;63.25;;;47.17;;
45274;SDS011;31019;43.780;25.948;2023-03-01T06:55:43;60.35;;;45.67;;
45274;SDS011;31019;43.780;25.948;2023-03-01T06:58:11;67.35;;;48.05;;
45274;SDS011;31019;43.780;25.948;2023-03-01T07:00:38;60.45;;;45.55;;
45274;SDS011;31019;43.780;25.948;2023-03-01T07:03:05;60.22;;;46.97;;
45274;SDS011;31019;43.780;25.948;2023-03-01T07:05:33;60.53;;;45.70;;
45274;SDS011;31019;43.780;25.948;2023-03-01T07:07:59;59.85;;;45.70;;
45274;SDS011;31019;43.780;25.948;2023-03-01T07:10:26;56.42;;;43.17;;
45274;SDS011;31019;43.780;25.948;2023-03-01T07:12:54;57.90;;;43.55;;
45274;SDS011;31019;43.780;25.948;2023-03-01T07:15:23;67.05;;;51.83;;
45274;SDS011;31019;43.780;25.948;2023-03-01T07:17:50;62.08;;;52.53;;
45274;SDS011;31019;43.780;25.948;2023-03-01T07:20:17;60.20;;;47.88;;
45274;SDS011;31019;43.780;25.948;2023-03-01T07:22:44;70.97;;;51.22;;
45274;SDS011;31019;43.780;25.948;2023-03-01T07:25:10;66.63;;;48.28;;
45274;SDS011;31019;43.780;25.948;2023-03-01T07:27:37;68.90;;;53.88;;
45274;SDS011;31019;43.780;25.948;2023-03-01T07:30:04;70.88;;;52.17;;
45274;SDS011;31019;43.780;25.948;2023-03-01T07:32:33;65.72;;;49.38;;
45274;SDS011;31019;43.780;25.948;2023-03-01T07:35:00;60.67;;;45.63;;
45274;SDS011;31019;43.780;25.948;2023-03-01T07:37:27;67.60;;;49.30;;
45274;SDS011;31019;43.780;25.948;2023-03-01T07:39:53;65.65;;;48.72;;
45274;SDS011;31019;43.780;25.948;2023-03-01T07:42:20;79.47;;;55.40;;
45274;SDS011;31019;43.780;25.948;2023-03-01T07:44:47;72.15;;;53.63;;
45274;SDS011;31019;43.780;25.948;2023-03-01T07:47:13;63.80;;;47.83;;
45274;SDS011;31019;43.780;25.948;2023-03-01T07:49:41;61.80;;;45.90;;
45274;SDS011;31019;43.780;25.948;2023-03-01T07:52:09;60.33;;;48.20;;
45274;SDS011;31019;43.780;25.948;2023-03-01T07:54:37;62.17;;;46.88;;
45274;SDS011;31019;43.780;25.948;2023-03-01T07:57:03;56.53;;;45.83;;
45274;SDS011;31019;43.780;25.948;2023-03-01T07:59:30;56.50;;;45.33;;
45274;SDS011;31019;43.780;25.948;2023-03-01T08:01:57;56.15;;;44.60;;
45274;SDS011;31019;43.780;25.948;2023-03-01T08:04:24;70.20;;;51.03;;
45274;SDS011;31019;43.780;25.948;2023-03-01T08:06:53;62.38;;;49.05;;
45274;SDS011;31019;43.780;25.948;2023-03-01T08:09:20;59.60;;;46.40;;
45274;SDS011;31019;43.780;25.948;2023-03-01T08:11:47;58.67;;;48.22;;
45274;SDS011;31019;43.780;25.948;2023-03-01T08:14:14;58.85;;;43.70;;
45274;SDS011;31019;43.780;25.948;2023-03-01T08:16:42;61.63;;;46.63;;
45274;SDS011;31019;43.780;25.948;2023-03-01T08:19:09;67.72;;;53.38;;
45274;SDS011;31019;43.780;25.948;2023-03-01T08:21:38;65.30;;;48.40;;
45274;SDS011;31019;43.780;25.948;2023-03-01T08:24:07;86.97;;;59.53;;
45274;SDS011;31019;43.780;25.948;2023-03-01T08:26:35;167.95;;;106.90;;
45274;SDS011;31019;43.780;25.948;2023-03-01T08:29:02;96.53;;;65.53;;
45274;SDS011;31019;43.780;25.948;2023-03-01T08:31:30;70.00;;;53.83;;
45274;SDS011;31019;43.780;25.948;2023-03-01T08:33:59;66.07;;;54.13;;
45274;SDS011;31019;43.780;25.948;2023-03-01T08:36:27;63.78;;;48.35;;
45274;SDS011;31019;43.780;25.948;2023-03-01T08:38:55;65.53;;;50.28;;
45274;SDS011;31019;43.780;25.948;2023-03-01T08:41:23;60.92;;;47.22;;
45274;SDS011;31019;43.780;25.948;2023-03-01T08:43:50;68.47;;;47.70;;
45274;SDS011;31019;43.780;25.948;2023-03-01T08:46:17;62.50;;;47.72;;
45274;SDS011;31019;43.780;25.948;2023-03-01T08:48:44;64.80;;;50.50;;
45274;SDS011;31019;43.780;25.948;2023-03-01T08:51:11;57.85;;;48.90;;
45274;SDS011;31019;43.780;25.948;2023-03-01T08:53:39;63.25;;;48.28;;
45274;SDS011;31019;43.780;25.948;2023-03-01T08:56:07;60.85;;;51.30;;
45274;SDS011;31019;43.780;25.948;2023-03-01T08:58:35;62.72;;;46.67;;
45274;SDS011;31019;43.780;25.948;2023-03-01T09:01:06;55.03;;;45.03;;
45274;SDS011;31019;43.780;25.948;2023-03-01T09:03:33;59.80;;;48.90;;
45274;SDS011;31019;43.780;25.948;2023-03-01T09:06:00;61.63;;;51.53;;
45274;SDS011;31019;43.780;25.948;2023-03-01T09:08:27;63.88;;;53.97;;
45274;SDS011;31019;43.780;25.948;2023-03-01T09:10:54;58.80;;;47.60;;
45274;SDS011;31019;43.780;25.948;2023-03-01T09:13:21;58.33;;;49.72;;
45274;SDS011;31019;43.780;25.948;2023-03-01T09:15:51;60.22;;;52.70;;
45274;SDS011;31019;43.780;25.948;2023-03-01T09:18:17;53.35;;;47.55;;
45274;SDS011;31019;43.780;25.948;2023-03-01T09:20:44;59.25;;;46.25;;
45274;SDS011;31019;43.780;25.948;2023-03-01T09:23:11;53.90;;;45.80;;
45274;SDS011;31019;43.780;25.948;2023-03-01T09:25:38;66.82;;;52.80;;
45274;SDS011;31019;43.780;25.948;2023-03-01T09:28:04;63.70;;;50.05;;
45274;SDS011;31019;43.780;25.948;2023-03-01T09:30:31;58.20;;;46.55;;
45274;SDS011;31019;43.780;25.948;2023-03-01T09:32:59;57.53;;;43.78;;
45274;SDS011;31019;43.780;25.948;2023-03-01T09:35:26;55.70;;;44.95;;
45274;SDS011;31019;43.780;25.948;2023-03-01T09:37:53;55.25;;;44.08;;
45274;SDS011;31019;43.780;25.948;2023-03-01T09:40:20;62.65;;;47.55;;
45274;SDS011;31019;43.780;25.948;2023-03-01T09:42:52;57.75;;;43.40;;
45274;SDS011;31019;43.780;25.948;2023-03-01T09:45:27;57.90;;;44.28;;
45274;SDS011;31019;43.780;25.948;2023-03-01T09:48:00;61.42;;;47.25;;
45274;SDS011;31019;43.780;25.948;2023-03-01T09:50:32;59.28;;;47.70;;
45274;SDS011;31019;43.780;25.948;2023-03-01T09:53:02;64.57;;;51.20;;
45274;SDS011;31019;43.780;25.948;2023-03-01T09:55:33;55.63;;;46.47;;
45274;SDS011;31019;43.780;25.948;2023-03-01T09:58:11;58.88;;;44.42;;
45274;SDS011;31019;43.780;25.948;2023-03-01T10:00:56;58.55;;;44.92;;
45274;SDS011;31019;43.780;25.948;2023-03-01T10:03:31;63.40;;;49.70;;
45274;SDS011;31019;43.780;25.948;2023-03-01T10:06:04;68.18;;;49.53;;
45274;SDS011;31019;43.780;25.948;2023-03-01T10:08:38;63.55;;;47.60;;
45274;SDS011;31019;43.780;25.948;2023-03-01T10:11:16;59.93;;;45.70;;
45274;SDS011;31019;43.780;25.948;2023-03-01T10:13:48;63.03;;;47.70;;
45274;SDS011;31019;43.780;25.948;2023-03-01T10:16:21;65.18;;;50.00;;
45274;SDS011;31019;43.780;25.948;2023-03-01T10:18:58;64.45;;;49.22;;
45274;SDS011;31019;43.780;25.948;2023-03-01T10:21:28;62.92;;;50.03;;
45274;SDS011;31019;43.780;25.948;2023-03-01T10:23:56;64.25;;;49.25;;
45274;SDS011;31019;43.780;25.948;2023-03-01T10:26:43;68.30;;;49.58;;
45274;SDS011;31019;43.780;25.948;2023-03-01T10:29:14;69.38;;;50.20;;
45274;SDS011;31019;43.780;25.948;2023-03-01T10:31:42;71.43;;;57.70;;
45274;SDS011;31019;43.780;25.948;2023-03-01T10:34:14;69.90;;;56.20;;
45274;SDS011;31019;43.780;25.948;2023-03-01T10:36:44;64.82;;;52.08;;
45274;SDS011;31019;43.780;25.948;2023-03-01T10:39:16;65.80;;;49.30;;
45274;SDS011;31019;43.780;25.948;2023-03-01T10:41:51;66.47;;;51.05;;
45274;SDS011;31019;43.780;25.948;2023-03-01T10:44:37;70.05;;;54.45;;
45274;SDS011;31019;43.780;25.948;2023-03-01T10:47:11;68.63;;;51.33;;
45274;SDS011;31019;43.780;25.948;2023-03-01T10:49:51;68.28;;;49.90;;
45274;SDS011;31019;43.780;25.948;2023-03-01T10:52:24;70.85;;;50.72;;
45274;SDS011;31019;43.780;25.948;2023-03-01T10:54:53;63.58;;;46.90;;
45274;SDS011;31019;43.780;25.948;2023-03-01T10:57:27;64.00;;;47.58;;
45274;SDS011;31019;43.780;25.948;2023-03-01T11:00:00;64.97;;;53.50;;
45274;SDS011;31019;43.780;25.948;2023-03-01T11:02:37;68.15;;;51.10;;
45274;SDS011;31019;43.780;25.948;2023-03-01T11:05:13;67.22;;;50.35;;
45274;SDS011;31019;43.780;25.948;2023-03-01T11:07:48;72.28;;;59.60;;
45274;SDS011;31019;43.780;25.948;2023-03-01T11:10:17;65.80;;;49.85;;
45274;SDS011;31019;43.780;25.948;2023-03-01T11:12:44;63.72;;;46.17;;
45274;SDS011;31019;43.780;25.948;2023-03-01T11:15:19;64.10;;;46.47;;
45274;SDS011;31019;43.780;25.948;2023-03-01T11:17:49;65.22;;;45.72;;
45274;SDS011;31019;43.780;25.948;2023-03-01T11:20:18;59.60;;;43.65;;
45274;SDS011;31019;43.780;25.948;2023-03-01T11:22:52;65.00;;;45.08;;
45274;SDS011;31019;43.780;25.948;2023-03-01T11:25:23;69.78;;;48.60;;
45274;SDS011;31019;43.780;25.948;2023-03-01T11:27:52;58.75;;;40.55;;
45274;SDS011;31019;43.780;25.948;2023-03-01T11:30:22;64.53;;;43.40;;
45274;SDS011;31019;43.780;25.948;2023-03-01T11:32:53;69.25;;;47.00;;
45274;SDS011;31019;43.780;25.948;2023-03-01T11:35:28;57.80;;;45.33;;
45274;SDS011;31019;43.780;25.948;2023-03-01T11:37:59;62.22;;;47.97;;
45274;SDS011;31019;43.780;25.948;2023-03-01T11:40:33;69.97;;;47.67;;
45274;SDS011;31019;43.780;25.948;2023-03-01T11:43:05;60.85;;;47.08;;
45274;SDS011;31019;43.780;25.948;2023-03-01T11:45:45;67.40;;;49.53;;
45274;SDS011;31019;43.780;25.948;2023-03-01T11:48:25;65.57;;;50.05;;
45274;SDS011;31019;43.780;25.948;2023-03-01T11:51:01;62.30;;;45.95;;
45274;SDS011;31019;43.780;25.948;2023-03-01T11:53:38;60.58;;;44.03;;
45274;SDS011;31019;43.780;25.948;2023-03-01T11:56:21;66.43;;;47.75;;
45274;SDS011;31019;43.780;25.948;2023-03-01T12:01:51;68.20;;;47.53;;
45274;SDS011;31019;43.780;25.948;2023-03-01T12:04:34;66.32;;;45.55;;
45274;SDS011;31019;43.780;25.948;2023-03-01T12:07:19;77.38;;;45.35;;
45274;SDS011;31019;43.780;25.948;2023-03-01T12:10:00;70.72;;;47.00;;
45274;SDS011;31019;43.780;25.948;2023-03-01T12:12:47;64.03;;;41.00;;
45274;SDS011;31019;43.780;25.948;2023-03-01T12:15:28;61.80;;;43.13;;
45274;SDS011;31019;43.780;25.948;2023-03-01T12:21:03;59.50;;;43.13;;
45274;SDS011;31019;43.780;25.948;2023-03-01T12:23:51;55.28;;;42.08;;
45274;SDS011;31019;43.780;25.948;2023-03-01T12:26:32;61.78;;;47.08;;
45274;SDS011;31019;43.780;25.948;2023-03-01T12:29:09;68.03;;;54.00;;
45274;SDS011;31019;43.780;25.948;2023-03-01T12:31:57;61.70;;;48.20;;
45274;SDS011;31019;43.780;25.948;2023-03-01T12:34:46;63.63;;;46.13;;
45274;SDS011;31019;43.780;25.948;2023-03-01T12:37:36;64.90;;;47.92;;
45274;SDS011;31019;43.780;25.948;2023-03-01T12:40:22;61.00;;;48.63;;
45274;SDS011;31019;43.780;25.948;2023-03-01T12:43:01;55.92;;;46.17;;
45274;SDS011;31019;43.780;25.948;2023-03-01T12:45:48;59.53;;;44.60;;
45274;SDS011;31019;43.780;25.948;2023-03-01T12:48:31;51.50;;;40.00;;
45274;SDS011;31019;43.780;25.948;2023-03-01T12:51:10;61.90;;;49.70;;
45274;SDS011;31019;43.780;25.948;2023-03-01T12:53:41;59.33;;;46.75;;
45274;SDS011;31019;43.780;25.948;2023-03-01T12:56:15;62.30;;;45.95;;
45274;SDS011;31019;43.780;25.948;2023-03-01T12:58:47;54.55;;;44.03;;
45274;SDS011;31019;43.780;25.948;2023-03-01T13:01:25;59.35;;;49.78;;
45274;SDS011;31019;43.780;25.948;2023-03-01T13:06:50;79.07;;;54.85;;
45274;SDS011;31019;43.780;25.948;2023-03-01T13:09:25;59.88;;;48.67;;
45274;SDS011;31019;43.780;25.948;2023-03-01T13:11:59;57.65;;;48.55;;
45274;SDS011;31019;43.780;25.948;2023-03-01T13:14:35;57.40;;;43.67;;
45274;SDS011;31019;43.780;25.948;2023-03-01T13:17:03;59.45;;;45.70;;
45274;SDS011;31019;43.780;25.948;2023-03-01T13:19:30;61.70;;;46.90;;
45274;SDS011;31019;43.780;25.948;2023-03-01T13:22:00;63.70;;;51.67;;
45274;SDS011;31019;43.780;25.948;2023-03-01T13:25:00;57.70;;;47.88;;
45274;SDS011;31019;43.780;25.948;2023-03-01T13:27:30;61.38;;;51.70;;
45274;SDS011;31019;43.780;25.948;2023-03-01T13:29:57;60.83;;;48.65;;
45274;SDS011;31019;43.780;25.948;2023-03-01T13:32:30;65.30;;;48.53;;
45274;SDS011;31019;43.780;25.948;2023-03-01T13:34:58;62.97;;;50.80;;
45274;SDS011;31019;43.780;25.948;2023-03-01T13:37:27;57.85;;;48.17;;
45274;SDS011;31019;43.780;25.948;2023-03-01T13:39:57;57.92;;;48.58;;
45274;SDS011;31019;43.780;25.948;2023-03-01T13:42:34;56.35;;;44.17;;
45274;SDS011;31019;43.780;25.948;2023-03-01T13:45:04;56.20;;;47.47;;
45274;SDS011;31019;43.780;25.948;2023-03-01T13:47:44;54.60;;;48.67;;
45274;SDS011;31019;43.780;25.948;2023-03-01T13:50:18;54.65;;;48.03;;
45274;SDS011;31019;43.780;25.948;2023-03-01T13:52:48;67.47;;;51.17;;
45274;SDS011;31019;43.780;25.948;2023-03-01T13:55:19;66.47;;;50.15;;
45274;SDS011;31019;43.780;25.948;2023-03-01T13:57:53;65.82;;;54.28;;
45274;SDS011;31019;43.780;25.948;2023-03-01T14:00:30;60.58;;;45.85;;
45274;SDS011;31019;43.780;25.948;2023-03-01T14:03:08;53.20;;;47.05;;
45274;SDS011;31019;43.780;25.948;2023-03-01T14:05:37;48.55;;;43.75;;
45274;SDS011;31019;43.780;25.948;2023-03-01T14:08:05;62.03;;;47.83;;
45274;SDS011;31019;43.780;25.948;2023-03-01T14:10:46;53.72;;;43.95;;
45274;SDS011;31019;43.780;25.948;2023-03-01T14:13:25;57.13;;;49.05;;
45274;SDS011;31019;43.780;25.948;2023-03-01T14:16:10;55.35;;;49.30;;
45274;SDS011;31019;43.780;25.948;2023-03-01T14:18:47;52.67;;;45.85;;
45274;SDS011;31019;43.780;25.948;2023-03-01T14:21:19;56.75;;;50.65;;
45274;SDS011;31019;43.780;25.948;2023-03-01T14:23:47;54.00;;;42.83;;
45274;SDS011;31019;43.780;25.948;2023-03-01T14:26:14;54.97;;;46.05;;
45274;SDS011;31019;43.780;25.948;2023-03-01T14:28:48;57.80;;;47.05;;
45274;SDS011;31019;43.780;25.948;2023-03-01T14:31:31;51.38;;;43.95;;
45274;SDS011;31019;43.780;25.948;2023-03-01T14:34:00;55.22;;;42.40;;
45274;SDS011;31019;43.780;25.948;2023-03-01T14:36:28;52.25;;;44.38;;